sensor_id;sensor_type;location;lat;lon;timestamp;P1;durP1;ratioP1;P2;durP2;ratioP2
72125;SDS011;59999;51.676;22.650;2023-04-25T00:00:03;14.93;;;7.85;;
72125;SDS011;59999;51.676;22.650;2023-04-25T00:02:52;14.83;;;7.50;;
72125;SDS011;59999;51.676;22.650;2023-04-25T00:05:18;17.42;;;8.45;;
72125;SDS011;59999;51.676;22.650;2023-04-25T00:07:45;14.68;;;7.85;;
72125;SDS011;59999;51.676;22.650;2023-04-25T00:10:11;17.38;;;8.57;;
72125;SDS011;59999;51.676;22.650;2023-04-25T00:12:37;18.83;;;8.10;;
72125;SDS011;59999;51.676;22.650;2023-04-25T00:15:04;16.17;;;7.72;;
72125;SDS011;59999;51.676;22.650;2023-04-25T00:17:30;15.98;;;8.02;;
72125;SDS011;59999;51.676;22.650;2023-04-25T00:19:56;14.57;;;7.60;;
72125;SDS011;59999;51.676;22.650;2023-04-25T00:22:23;15.43;;;7.80;;
72125;SDS011;59999;51.676;22.650;2023-04-25T00:24:49;17.75;;;7.95;;
72125;SDS011;59999;51.676;22.650;2023-04-25T00:27:16;16.55;;;7.50;;
72125;SDS011;59999;51.676;22.650;2023-04-25T00:29:42;16.48;;;8.30;;
72125;SDS011;59999;51.676;22.650;2023-04-25T00:32:08;14.97;;;8.20;;
72125;SDS011;59999;51.676;22.650;2023-04-25T00:34:33;17.02;;;7.95;;
72125;SDS011;59999;51.676;22.650;2023-04-25T00:37:00;13.73;;;7.32;;
72125;SDS011;59999;51.676;22.650;2023-04-25T00:39:27;14.73;;;8.00;;
72125;SDS011;59999;51.676;22.650;2023-04-25T00:41:54;17.73;;;8.40;;
72125;SDS011;59999;51.676;22.650;2023-04-25T00:44:20;15.73;;;7.53;;
72125;SDS011;59999;51.676;22.650;2023-04-25T00:46:47;15.98;;;7.97;;
72125;SDS011;59999;51.676;22.650;2023-04-25T00:49:14;16.17;;;8.07;;
72125;SDS011;59999;51.676;22.650;2023-04-25T00:51:42;15.23;;;7.57;;
72125;SDS011;59999;51.676;22.650;2023-04-25T00:54:10;15.73;;;7.70;;
72125;SDS011;59999;51.676;22.650;2023-04-25T00:56:40;14.13;;;7.35;;
72125;SDS011;59999;51.676;22.650;2023-04-25T00:59:06;15.75;;;7.75;;
72125;SDS011;59999;51.676;22.650;2023-04-25T01:01:35;14.45;;;7.60;;
72125;SDS011;59999;51.676;22.650;2023-04-25T01:04:01;14.07;;;7.40;;
72125;SDS011;59999;51.676;22.650;2023-04-25T01:06:27;16.27;;;7.43;;
72125;SDS011;59999;51.676;22.650;2023-04-25T01:08:53;16.92;;;8.88;;
72125;SDS011;59999;51.676;22.650;2023-04-25T01:11:20;15.82;;;8.02;;
72125;SDS011;59999;51.676;22.650;2023-04-25T01:13:45;15.55;;;8.30;;
72125;SDS011;59999;51.676;22.650;2023-04-25T01:16:12;17.77;;;8.50;;
72125;SDS011;59999;51.676;22.650;2023-04-25T01:18:38;17.05;;;8.52;;
72125;SDS011;59999;51.676;22.650;2023-04-25T01:21:09;18.75;;;9.05;;
72125;SDS011;59999;51.676;22.650;2023-04-25T01:23:37;14.90;;;8.20;;
72125;SDS011;59999;51.676;22.650;2023-04-25T01:26:06;17.63;;;8.68;;
72125;SDS011;59999;51.676;22.650;2023-04-25T01:28:33;16.63;;;8.77;;
72125;SDS011;59999;51.676;22.650;2023-04-25T01:31:01;15.95;;;8.75;;
72125;SDS011;59999;51.676;22.650;2023-04-25T01:33:27;17.45;;;9.18;;
72125;SDS011;59999;51.676;22.650;2023-04-25T01:35:53;16.17;;;8.50;;
72125;SDS011;59999;51.676;22.650;2023-04-25T01:38:19;19.80;;;9.90;;
72125;SDS011;59999;51.676;22.650;2023-04-25T01:40:46;20.50;;;9.63;;
72125;SDS011;59999;51.676;22.650;2023-04-25T01:43:14;18.45;;;9.32;;
72125;SDS011;59999;51.676;22.650;2023-04-25T01:45:41;17.60;;;8.88;;
72125;SDS011;59999;51.676;22.650;2023-04-25T01:48:08;20.85;;;10.35;;
72125;SDS011;59999;51.676;22.650;2023-04-25T01:50:34;18.38;;;9.65;;
72125;SDS011;59999;51.676;22.650;2023-04-25T01:53:01;17.80;;;8.77;;
72125;SDS011;59999;51.676;22.650;2023-04-25T01:55:28;17.70;;;9.27;;
72125;SDS011;59999;51.676;22.650;2023-04-25T01:57:53;18.40;;;9.60;;
72125;SDS011;59999;51.676;22.650;2023-04-25T02:00:20;17.00;;;8.80;;
72125;SDS011;59999;51.676;22.650;2023-04-25T02:02:46;16.52;;;8.90;;
72125;SDS011;59999;51.676;22.650;2023-04-25T02:05:12;17.73;;;9.17;;
72125;SDS011;59999;51.676;22.650;2023-04-25T02:07:38;16.52;;;8.73;;
72125;SDS011;59999;51.676;22.650;2023-04-25T02:10:04;17.90;;;8.80;;
72125;SDS011;59999;51.676;22.650;2023-04-25T02:12:30;17.45;;;8.88;;
72125;SDS011;59999;51.676;22.650;2023-04-25T02:14:57;16.90;;;8.83;;
72125;SDS011;59999;51.676;22.650;2023-04-25T02:17:23;17.63;;;9.38;;
72125;SDS011;59999;51.676;22.650;2023-04-25T02:19:49;16.88;;;8.95;;
72125;SDS011;59999;51.676;22.650;2023-04-25T02:22:15;15.75;;;9.02;;
72125;SDS011;59999;51.676;22.650;2023-04-25T02:24:41;16.90;;;9.07;;
72125;SDS011;59999;51.676;22.650;2023-04-25T02:27:07;18.10;;;8.83;;
72125;SDS011;59999;51.676;22.650;2023-04-25T02:29:33;15.48;;;9.00;;
72125;SDS011;59999;51.676;22.650;2023-04-25T02:31:59;17.60;;;9.07;;
72125;SDS011;59999;51.676;22.650;2023-04-25T02:34:25;17.73;;;8.53;;
72125;SDS011;59999;51.676;22.650;2023-04-25T02:36:51;15.73;;;9.25;;
72125;SDS011;59999;51.676;22.650;2023-04-25T02:39:17;14.73;;;8.27;;
72125;SDS011;59999;51.676;22.650;2023-04-25T02:41:43;16.77;;;8.93;;
72125;SDS011;59999;51.676;22.650;2023-04-25T02:44:09;18.48;;;9.20;;
72125;SDS011;59999;51.676;22.650;2023-04-25T02:46:35;16.73;;;9.27;;
72125;SDS011;59999;51.676;22.650;2023-04-25T02:49:01;19.13;;;9.25;;
72125;SDS011;59999;51.676;22.650;2023-04-25T02:51:28;16.90;;;9.30;;
72125;SDS011;59999;51.676;22.650;2023-04-25T02:53:54;16.90;;;9.30;;
72125;SDS011;59999;51.676;22.650;2023-04-25T02:56:20;16.50;;;9.27;;
72125;SDS011;59999;51.676;22.650;2023-04-25T02:58:46;19.23;;;9.47;;
72125;SDS011;59999;51.676;22.650;2023-04-25T03:01:12;18.73;;;9.50;;
72125;SDS011;59999;51.676;22.650;2023-04-25T03:03:38;20.90;;;9.52;;
72125;SDS011;59999;51.676;22.650;2023-04-25T03:06:03;19.90;;;10.23;;
72125;SDS011;59999;51.676;22.650;2023-04-25T03:08:29;17.20;;;9.43;;
72125;SDS011;59999;51.676;22.650;2023-04-25T03:10:58;18.75;;;9.77;;
72125;SDS011;59999;51.676;22.650;2023-04-25T03:13:24;18.25;;;9.90;;
72125;SDS011;59999;51.676;22.650;2023-04-25T03:15:50;20.20;;;10.10;;
72125;SDS011;59999;51.676;22.650;2023-04-25T03:18:16;19.58;;;9.38;;
72125;SDS011;59999;51.676;22.650;2023-04-25T03:20:42;18.88;;;9.98;;
72125;SDS011;59999;51.676;22.650;2023-04-25T03:23:10;18.52;;;10.18;;
72125;SDS011;59999;51.676;22.650;2023-04-25T03:25:35;18.33;;;9.97;;
72125;SDS011;59999;51.676;22.650;2023-04-25T03:28:01;18.58;;;9.90;;
72125;SDS011;59999;51.676;22.650;2023-04-25T03:30:27;18.73;;;9.70;;
72125;SDS011;59999;51.676;22.650;2023-04-25T03:32:53;17.85;;;9.65;;
72125;SDS011;59999;51.676;22.650;2023-04-25T03:35:19;16.58;;;9.43;;
72125;SDS011;59999;51.676;22.650;2023-04-25T03:37:45;19.75;;;10.57;;
72125;SDS011;59999;51.676;22.650;2023-04-25T03:40:11;19.30;;;9.93;;
72125;SDS011;59999;51.676;22.650;2023-04-25T03:42:38;20.85;;;10.32;;
72125;SDS011;59999;51.676;22.650;2023-04-25T03:45:03;18.55;;;10.00;;
72125;SDS011;59999;51.676;22.650;2023-04-25T03:47:30;20.98;;;10.32;;
72125;SDS011;59999;51.676;22.650;2023-04-25T03:49:56;19.57;;;9.17;;
72125;SDS011;59999;51.676;22.650;2023-04-25T03:52:22;20.75;;;9.48;;
72125;SDS011;59999;51.676;22.650;2023-04-25T03:54:48;18.87;;;9.63;;
72125;SDS011;59999;51.676;22.650;2023-04-25T03:57:14;22.70;;;10.98;;
72125;SDS011;59999;51.676;22.650;2023-04-25T03:59:40;22.42;;;10.63;;
72125;SDS011;59999;51.676;22.650;2023-04-25T04:02:06;21.45;;;10.80;;
72125;SDS011;59999;51.676;22.650;2023-04-25T04:04:32;20.03;;;10.40;;
72125;SDS011;59999;51.676;22.650;2023-04-25T04:06:58;19.20;;;10.65;;
72125;SDS011;59999;51.676;22.650;2023-04-25T04:09:24;24.33;;;10.82;;
72125;SDS011;59999;51.676;22.650;2023-04-25T04:11:50;21.08;;;10.07;;
72125;SDS011;59999;51.676;22.650;2023-04-25T04:14:16;19.43;;;10.20;;
72125;SDS011;59999;51.676;22.650;2023-04-25T04:16:42;20.23;;;10.57;;
72125;SDS011;59999;51.676;22.650;2023-04-25T04:19:08;20.83;;;10.82;;
72125;SDS011;59999;51.676;22.650;2023-04-25T04:21:34;22.00;;;11.20;;
72125;SDS011;59999;51.676;22.650;2023-04-25T04:24:00;21.50;;;10.50;;
72125;SDS011;59999;51.676;22.650;2023-04-25T04:26:26;22.30;;;10.73;;
72125;SDS011;59999;51.676;22.650;2023-04-25T04:28:52;21.55;;;10.80;;
72125;SDS011;59999;51.676;22.650;2023-04-25T04:31:21;22.45;;;11.05;;
72125;SDS011;59999;51.676;22.650;2023-04-25T04:33:47;19.98;;;10.35;;
72125;SDS011;59999;51.676;22.650;2023-04-25T04:36:13;22.30;;;11.60;;
72125;SDS011;59999;51.676;22.650;2023-04-25T04:38:39;20.23;;;10.25;;
72125;SDS011;59999;51.676;22.650;2023-04-25T04:41:08;26.50;;;11.20;;
72125;SDS011;59999;51.676;22.650;2023-04-25T04:43:34;25.10;;;11.60;;
72125;SDS011;59999;51.676;22.650;2023-04-25T04:46:00;21.53;;;10.87;;
72125;SDS011;59999;51.676;22.650;2023-04-25T04:48:26;22.35;;;11.27;;
72125;SDS011;59999;51.676;22.650;2023-04-25T04:50:52;22.15;;;11.35;;
72125;SDS011;59999;51.676;22.650;2023-04-25T04:53:18;22.37;;;11.57;;
72125;SDS011;59999;51.676;22.650;2023-04-25T04:55:44;19.98;;;10.77;;
72125;SDS011;59999;51.676;22.650;2023-04-25T04:58:11;20.10;;;11.13;;
72125;SDS011;59999;51.676;22.650;2023-04-25T05:00:37;20.77;;;10.82;;
72125;SDS011;59999;51.676;22.650;2023-04-25T05:03:03;18.17;;;9.38;;
72125;SDS011;59999;51.676;22.650;2023-04-25T05:05:31;20.60;;;10.87;;
72125;SDS011;59999;51.676;22.650;2023-04-25T05:07:57;19.45;;;11.10;;
72125;SDS011;59999;51.676;22.650;2023-04-25T05:10:23;20.52;;;11.05;;
72125;SDS011;59999;51.676;22.650;2023-04-25T05:12:49;19.83;;;10.97;;
72125;SDS011;59999;51.676;22.650;2023-04-25T05:15:15;18.52;;;10.48;;
72125;SDS011;59999;51.676;22.650;2023-04-25T05:17:41;21.85;;;10.82;;
72125;SDS011;59999;51.676;22.650;2023-04-25T05:20:08;21.20;;;11.25;;
72125;SDS011;59999;51.676;22.650;2023-04-25T05:22:34;19.17;;;11.30;;
72125;SDS011;59999;51.676;22.650;2023-04-25T05:25:01;21.07;;;11.60;;
72125;SDS011;59999;51.676;22.650;2023-04-25T05:27:27;20.45;;;11.55;;
72125;SDS011;59999;51.676;22.650;2023-04-25T05:29:53;22.20;;;11.32;;
72125;SDS011;59999;51.676;22.650;2023-04-25T05:32:19;19.75;;;10.85;;
72125;SDS011;59999;51.676;22.650;2023-04-25T05:34:45;18.50;;;10.30;;
72125;SDS011;59999;51.676;22.650;2023-04-25T05:37:11;20.42;;;11.40;;
72125;SDS011;59999;51.676;22.650;2023-04-25T05:39:37;21.60;;;11.10;;
72125;SDS011;59999;51.676;22.650;2023-04-25T05:42:03;21.47;;;11.70;;
72125;SDS011;59999;51.676;22.650;2023-04-25T05:44:29;21.92;;;12.00;;
72125;SDS011;59999;51.676;22.650;2023-04-25T05:46:56;20.25;;;11.23;;
72125;SDS011;59999;51.676;22.650;2023-04-25T05:49:22;21.63;;;11.60;;
72125;SDS011;59999;51.676;22.650;2023-04-25T05:51:48;22.23;;;11.57;;
72125;SDS011;59999;51.676;22.650;2023-04-25T05:54:14;21.33;;;11.55;;
72125;SDS011;59999;51.676;22.650;2023-04-25T05:56:40;21.58;;;12.02;;
72125;SDS011;59999;51.676;22.650;2023-04-25T05:59:06;20.70;;;12.20;;
72125;SDS011;59999;51.676;22.650;2023-04-25T06:01:31;21.80;;;11.60;;
72125;SDS011;59999;51.676;22.650;2023-04-25T06:03:57;24.25;;;13.43;;
72125;SDS011;59999;51.676;22.650;2023-04-25T06:06:23;31.05;;;14.82;;
72125;SDS011;59999;51.676;22.650;2023-04-25T06:08:50;26.43;;;13.30;;
72125;SDS011;59999;51.676;22.650;2023-04-25T06:11:15;23.70;;;13.30;;
72125;SDS011;59999;51.676;22.650;2023-04-25T06:13:42;19.60;;;11.98;;
72125;SDS011;59999;51.676;22.650;2023-04-25T06:16:07;22.33;;;13.40;;
72125;SDS011;59999;51.676;22.650;2023-04-25T06:18:33;21.35;;;11.43;;
72125;SDS011;59999;51.676;22.650;2023-04-25T06:20:59;23.40;;;13.50;;
72125;SDS011;59999;51.676;22.650;2023-04-25T06:23:26;24.10;;;13.40;;
72125;SDS011;59999;51.676;22.650;2023-04-25T06:25:51;25.00;;;12.83;;
72125;SDS011;59999;51.676;22.650;2023-04-25T06:28:18;24.70;;;13.35;;
72125;SDS011;59999;51.676;22.650;2023-04-25T06:30:44;25.10;;;13.85;;
72125;SDS011;59999;51.676;22.650;2023-04-25T06:33:10;23.17;;;12.73;;
72125;SDS011;59999;51.676;22.650;2023-04-25T06:35:36;23.67;;;13.70;;
72125;SDS011;59999;51.676;22.650;2023-04-25T06:38:02;32.95;;;18.50;;
72125;SDS011;59999;51.676;22.650;2023-04-25T06:40:28;31.75;;;16.67;;
72125;SDS011;59999;51.676;22.650;2023-04-25T06:42:54;27.93;;;14.87;;
72125;SDS011;59999;51.676;22.650;2023-04-25T06:45:20;27.05;;;14.85;;
72125;SDS011;59999;51.676;22.650;2023-04-25T06:47:46;24.50;;;13.77;;
72125;SDS011;59999;51.676;22.650;2023-04-25T06:50:12;23.87;;;13.73;;
72125;SDS011;59999;51.676;22.650;2023-04-25T06:52:38;27.92;;;14.63;;
72125;SDS011;59999;51.676;22.650;2023-04-25T06:55:04;25.55;;;14.10;;
72125;SDS011;59999;51.676;22.650;2023-04-25T06:57:31;26.10;;;14.30;;
72125;SDS011;59999;51.676;22.650;2023-04-25T06:59:57;26.80;;;14.10;;
72125;SDS011;59999;51.676;22.650;2023-04-25T07:02:23;26.33;;;14.38;;
72125;SDS011;59999;51.676;22.650;2023-04-25T07:04:48;28.23;;;15.00;;
72125;SDS011;59999;51.676;22.650;2023-04-25T07:07:15;25.17;;;13.77;;
72125;SDS011;59999;51.676;22.650;2023-04-25T07:09:40;25.90;;;15.00;;
72125;SDS011;59999;51.676;22.650;2023-04-25T07:12:07;27.10;;;15.20;;
72125;SDS011;59999;51.676;22.650;2023-04-25T07:14:32;26.67;;;15.17;;
72125;SDS011;59999;51.676;22.650;2023-04-25T07:16:58;25.73;;;14.73;;
72125;SDS011;59999;51.676;22.650;2023-04-25T07:19:24;26.42;;;15.05;;
72125;SDS011;59999;51.676;22.650;2023-04-25T07:21:52;27.45;;;15.07;;
72125;SDS011;59999;51.676;22.650;2023-04-25T07:24:18;26.30;;;15.25;;
72125;SDS011;59999;51.676;22.650;2023-04-25T07:26:44;26.73;;;15.23;;
72125;SDS011;59999;51.676;22.650;2023-04-25T07:29:10;28.48;;;15.48;;
72125;SDS011;59999;51.676;22.650;2023-04-25T07:31:36;28.55;;;15.73;;
72125;SDS011;59999;51.676;22.650;2023-04-25T07:34:03;27.25;;;15.23;;
72125;SDS011;59999;51.676;22.650;2023-04-25T07:36:29;27.83;;;15.23;;
72125;SDS011;59999;51.676;22.650;2023-04-25T07:38:56;28.17;;;15.53;;
72125;SDS011;59999;51.676;22.650;2023-04-25T07:41:22;28.63;;;16.02;;
72125;SDS011;59999;51.676;22.650;2023-04-25T07:43:48;26.98;;;15.60;;
72125;SDS011;59999;51.676;22.650;2023-04-25T07:46:14;28.17;;;15.43;;
72125;SDS011;59999;51.676;22.650;2023-04-25T07:48:40;29.00;;;15.93;;
72125;SDS011;59999;51.676;22.650;2023-04-25T07:51:06;25.80;;;14.77;;
72125;SDS011;59999;51.676;22.650;2023-04-25T07:53:32;27.50;;;15.95;;
72125;SDS011;59999;51.676;22.650;2023-04-25T07:56:00;29.88;;;16.17;;
72125;SDS011;59999;51.676;22.650;2023-04-25T07:58:26;27.07;;;15.33;;
72125;SDS011;59999;51.676;22.650;2023-04-25T08:00:52;31.95;;;17.48;;
72125;SDS011;59999;51.676;22.650;2023-04-25T08:03:18;27.75;;;16.08;;
72125;SDS011;59999;51.676;22.650;2023-04-25T08:05:44;31.35;;;17.63;;
72125;SDS011;59999;51.676;22.650;2023-04-25T08:08:10;34.07;;;16.93;;
72125;SDS011;59999;51.676;22.650;2023-04-25T08:10:36;33.45;;;18.48;;
72125;SDS011;59999;51.676;22.650;2023-04-25T08:13:02;30.52;;;18.10;;
72125;SDS011;59999;51.676;22.650;2023-04-25T08:15:28;30.08;;;16.00;;
72125;SDS011;59999;51.676;22.650;2023-04-25T08:17:54;32.87;;;17.40;;
72125;SDS011;59999;51.676;22.650;2023-04-25T08:20:20;28.67;;;16.70;;
72125;SDS011;59999;51.676;22.650;2023-04-25T08:22:46;26.38;;;15.73;;
72125;SDS011;59999;51.676;22.650;2023-04-25T08:25:14;30.25;;;17.10;;
72125;SDS011;59999;51.676;22.650;2023-04-25T08:27:40;32.97;;;19.57;;
72125;SDS011;59999;51.676;22.650;2023-04-25T08:30:06;31.50;;;18.03;;
72125;SDS011;59999;51.676;22.650;2023-04-25T08:32:34;26.73;;;15.90;;
72125;SDS011;59999;51.676;22.650;2023-04-25T08:35:00;33.75;;;18.52;;
72125;SDS011;59999;51.676;22.650;2023-04-25T08:37:26;27.17;;;15.70;;
72125;SDS011;59999;51.676;22.650;2023-04-25T08:39:52;29.67;;;17.50;;
72125;SDS011;59999;51.676;22.650;2023-04-25T08:42:18;42.45;;;24.10;;
72125;SDS011;59999;51.676;22.650;2023-04-25T08:44:47;30.65;;;16.83;;
72125;SDS011;59999;51.676;22.650;2023-04-25T08:47:14;30.60;;;17.48;;
72125;SDS011;59999;51.676;22.650;2023-04-25T08:49:41;29.60;;;17.05;;
72125;SDS011;59999;51.676;22.650;2023-04-25T08:52:11;28.60;;;15.63;;
72125;SDS011;59999;51.676;22.650;2023-04-25T08:54:41;28.92;;;17.17;;
72125;SDS011;59999;51.676;22.650;2023-04-25T08:57:09;29.83;;;16.83;;
72125;SDS011;59999;51.676;22.650;2023-04-25T08:59:36;28.60;;;15.88;;
72125;SDS011;59999;51.676;22.650;2023-04-25T09:02:04;27.02;;;16.40;;
72125;SDS011;59999;51.676;22.650;2023-04-25T09:04:31;29.00;;;15.47;;
72125;SDS011;59999;51.676;22.650;2023-04-25T09:06:57;29.13;;;16.23;;
72125;SDS011;59999;51.676;22.650;2023-04-25T09:09:24;28.45;;;16.35;;
72125;SDS011;59999;51.676;22.650;2023-04-25T09:11:50;27.10;;;15.73;;
72125;SDS011;59999;51.676;22.650;2023-04-25T09:14:17;29.50;;;17.23;;
72125;SDS011;59999;51.676;22.650;2023-04-25T09:19:23;28.65;;;16.83;;
72125;SDS011;59999;51.676;22.650;2023-04-25T09:21:50;30.48;;;17.33;;
72125;SDS011;59999;51.676;22.650;2023-04-25T09:24:29;29.08;;;16.92;;
72125;SDS011;59999;51.676;22.650;2023-04-25T09:26:57;28.00;;;16.87;;
72125;SDS011;59999;51.676;22.650;2023-04-25T09:29:30;27.98;;;15.68;;
72125;SDS011;59999;51.676;22.650;2023-04-25T09:34:43;26.45;;;16.00;;
72125;SDS011;59999;51.676;22.650;2023-04-25T09:37:10;30.02;;;16.55;;
72125;SDS011;59999;51.676;22.650;2023-04-25T09:39:38;28.03;;;16.57;;
72125;SDS011;59999;51.676;22.650;2023-04-25T09:42:04;29.27;;;16.75;;
72125;SDS011;59999;51.676;22.650;2023-04-25T09:44:31;28.33;;;15.48;;
72125;SDS011;59999;51.676;22.650;2023-04-25T09:46:57;28.15;;;16.50;;
72125;SDS011;59999;51.676;22.650;2023-04-25T09:49:25;25.83;;;15.35;;
72125;SDS011;59999;51.676;22.650;2023-04-25T09:54:23;25.17;;;15.43;;
72125;SDS011;59999;51.676;22.650;2023-04-25T09:56:51;24.30;;;14.05;;
72125;SDS011;59999;51.676;22.650;2023-04-25T09:59:21;25.83;;;14.15;;
72125;SDS011;59999;51.676;22.650;2023-04-25T10:01:50;24.17;;;14.25;;
72125;SDS011;59999;51.676;22.650;2023-04-25T10:04:19;20.77;;;11.77;;
72125;SDS011;59999;51.676;22.650;2023-04-25T10:06:48;23.05;;;12.40;;
72125;SDS011;59999;51.676;22.650;2023-04-25T10:09:16;22.92;;;12.70;;
72125;SDS011;59999;51.676;22.650;2023-04-25T10:11:44;19.88;;;12.35;;
72125;SDS011;59999;51.676;22.650;2023-04-25T10:14:13;20.42;;;11.32;;
72125;SDS011;59999;51.676;22.650;2023-04-25T10:16:40;19.20;;;12.07;;
72125;SDS011;59999;51.676;22.650;2023-04-25T10:19:07;18.40;;;11.18;;
72125;SDS011;59999;51.676;22.650;2023-04-25T10:21:33;21.60;;;12.23;;
72125;SDS011;59999;51.676;22.650;2023-04-25T10:24:01;19.30;;;11.05;;
72125;SDS011;59999;51.676;22.650;2023-04-25T10:26:28;17.45;;;11.00;;
72125;SDS011;59999;51.676;22.650;2023-04-25T10:28:58;18.73;;;11.57;;
72125;SDS011;59999;51.676;22.650;2023-04-25T10:31:29;18.40;;;11.15;;
72125;SDS011;59999;51.676;22.650;2023-04-25T10:33:56;17.90;;;10.43;;
72125;SDS011;59999;51.676;22.650;2023-04-25T10:36:22;15.07;;;9.40;;
72125;SDS011;59999;51.676;22.650;2023-04-25T10:38:50;16.15;;;10.20;;
72125;SDS011;59999;51.676;22.650;2023-04-25T10:41:20;18.03;;;10.80;;
72125;SDS011;59999;51.676;22.650;2023-04-25T10:43:47;19.58;;;10.57;;
72125;SDS011;59999;51.676;22.650;2023-04-25T10:48:51;17.05;;;10.60;;
72125;SDS011;59999;51.676;22.650;2023-04-25T10:51:21;20.35;;;11.18;;
72125;SDS011;59999;51.676;22.650;2023-04-25T10:56:42;19.85;;;10.70;;
72125;SDS011;59999;51.676;22.650;2023-04-25T10:59:12;17.40;;;10.68;;
72125;SDS011;59999;51.676;22.650;2023-04-25T11:01:42;17.27;;;10.80;;
72125;SDS011;59999;51.676;22.650;2023-04-25T11:10:11;20.48;;;12.52;;
72125;SDS011;59999;51.676;22.650;2023-04-25T11:12:37;22.83;;;12.45;;
72125;SDS011;59999;51.676;22.650;2023-04-25T11:15:04;25.58;;;15.23;;
72125;SDS011;59999;51.676;22.650;2023-04-25T11:17:31;26.03;;;15.37;;
72125;SDS011;59999;51.676;22.650;2023-04-25T11:19:58;26.80;;;14.60;;
72125;SDS011;59999;51.676;22.650;2023-04-25T11:22:26;33.90;;;20.92;;
72125;SDS011;59999;51.676;22.650;2023-04-25T11:24:52;28.38;;;16.48;;
72125;SDS011;59999;51.676;22.650;2023-04-25T11:27:19;27.48;;;15.05;;
72125;SDS011;59999;51.676;22.650;2023-04-25T11:29:46;22.90;;;12.50;;
72125;SDS011;59999;51.676;22.650;2023-04-25T11:32:17;21.60;;;12.05;;
72125;SDS011;59999;51.676;22.650;2023-04-25T11:34:44;23.50;;;13.25;;
72125;SDS011;59999;51.676;22.650;2023-04-25T11:37:10;20.98;;;12.65;;
72125;SDS011;59999;51.676;22.650;2023-04-25T11:39:43;23.65;;;12.05;;
72125;SDS011;59999;51.676;22.650;2023-04-25T11:42:10;22.10;;;11.03;;
72125;SDS011;59999;51.676;22.650;2023-04-25T11:44:37;20.88;;;11.77;;
72125;SDS011;59999;51.676;22.650;2023-04-25T11:47:05;20.75;;;12.25;;
72125;SDS011;59999;51.676;22.650;2023-04-25T11:49:31;38.75;;;21.02;;
72125;SDS011;59999;51.676;22.650;2023-04-25T11:51:57;21.90;;;12.70;;
72125;SDS011;59999;51.676;22.650;2023-04-25T11:54:23;21.40;;;12.10;;
72125;SDS011;59999;51.676;22.650;2023-04-25T11:56:49;23.95;;;13.10;;
72125;SDS011;59999;51.676;22.650;2023-04-25T11:59:15;26.05;;;14.43;;
72125;SDS011;59999;51.676;22.650;2023-04-25T12:01:49;23.80;;;13.45;;
72125;SDS011;59999;51.676;22.650;2023-04-25T12:04:17;35.20;;;19.97;;
72125;SDS011;59999;51.676;22.650;2023-04-25T12:06:44;27.98;;;16.73;;
72125;SDS011;59999;51.676;22.650;2023-04-25T12:09:13;26.17;;;15.10;;
72125;SDS011;59999;51.676;22.650;2023-04-25T12:11:54;32.08;;;17.00;;
72125;SDS011;59999;51.676;22.650;2023-04-25T12:14:25;27.25;;;14.82;;
72125;SDS011;59999;51.676;22.650;2023-04-25T12:16:54;25.30;;;14.37;;
72125;SDS011;59999;51.676;22.650;2023-04-25T12:19:23;36.25;;;17.02;;
72125;SDS011;59999;51.676;22.650;2023-04-25T12:21:49;25.73;;;14.45;;
72125;SDS011;59999;51.676;22.650;2023-04-25T12:24:25;21.95;;;12.65;;
72125;SDS011;59999;51.676;22.650;2023-04-25T12:29:26;27.70;;;13.80;;
72125;SDS011;59999;51.676;22.650;2023-04-25T12:31:53;25.48;;;14.00;;
72125;SDS011;59999;51.676;22.650;2023-04-25T12:34:21;25.38;;;13.77;;
72125;SDS011;59999;51.676;22.650;2023-04-25T12:36:48;23.48;;;13.15;;
72125;SDS011;59999;51.676;22.650;2023-04-25T12:39:15;27.98;;;14.27;;
72125;SDS011;59999;51.676;22.650;2023-04-25T12:41:42;23.87;;;12.80;;
72125;SDS011;59999;51.676;22.650;2023-04-25T12:44:09;24.58;;;13.15;;
72125;SDS011;59999;51.676;22.650;2023-04-25T12:46:36;21.58;;;11.52;;
72125;SDS011;59999;51.676;22.650;2023-04-25T12:49:03;21.00;;;10.65;;
72125;SDS011;59999;51.676;22.650;2023-04-25T12:51:29;19.38;;;10.27;;
72125;SDS011;59999;51.676;22.650;2023-04-25T12:53:55;18.93;;;10.33;;
72125;SDS011;59999;51.676;22.650;2023-04-25T12:56:21;18.67;;;9.95;;
72125;SDS011;59999;51.676;22.650;2023-04-25T12:58:47;20.73;;;11.18;;
72125;SDS011;59999;51.676;22.650;2023-04-25T13:01:14;19.83;;;10.65;;
72125;SDS011;59999;51.676;22.650;2023-04-25T13:03:40;18.98;;;10.20;;
72125;SDS011;59999;51.676;22.650;2023-04-25T13:06:06;18.47;;;10.20;;
72125;SDS011;59999;51.676;22.650;2023-04-25T13:08:33;20.98;;;10.55;;
72125;SDS011;59999;51.676;22.650;2023-04-25T13:11:00;22.02;;;11.45;;
72125;SDS011;59999;51.676;22.650;2023-04-25T13:13:26;22.75;;;12.23;;
72125;SDS011;59999;51.676;22.650;2023-04-25T13:15:52;27.60;;;14.93;;
72125;SDS011;59999;51.676;22.650;2023-04-25T13:18:18;25.15;;;13.30;;
72125;SDS011;59999;51.676;22.650;2023-04-25T13:20:45;22.98;;;12.65;;
72125;SDS011;59999;51.676;22.650;2023-04-25T13:23:11;21.23;;;11.07;;
72125;SDS011;59999;51.676;22.650;2023-04-25T13:25:37;20.40;;;10.67;;
72125;SDS011;59999;51.676;22.650;2023-04-25T13:28:03;19.35;;;10.75;;
72125;SDS011;59999;51.676;22.650;2023-04-25T13:30:30;18.83;;;10.27;;
72125;SDS011;59999;51.676;22.650;2023-04-25T13:32:56;17.73;;;9.57;;
72125;SDS011;59999;51.676;22.650;2023-04-25T13:35:22;16.92;;;9.43;;
72125;SDS011;59999;51.676;22.650;2023-04-25T13:37:48;20.43;;;10.30;;
72125;SDS011;59999;51.676;22.650;2023-04-25T13:40:15;19.88;;;10.25;;
72125;SDS011;59999;51.676;22.650;2023-04-25T13:42:41;20.90;;;10.18;;
72125;SDS011;59999;51.676;22.650;2023-04-25T13:45:08;17.50;;;9.18;;
72125;SDS011;59999;51.676;22.650;2023-04-25T13:47:34;18.13;;;9.68;;
72125;SDS011;59999;51.676;22.650;2023-04-25T13:50:00;18.87;;;10.03;;
72125;SDS011;59999;51.676;22.650;2023-04-25T13:52:28;21.40;;;11.02;;
72125;SDS011;59999;51.676;22.650;2023-04-25T13:54:54;24.00;;;11.55;;
72125;SDS011;59999;51.676;22.650;2023-04-25T13:57:21;22.50;;;11.50;;
72125;SDS011;59999;51.676;22.650;2023-04-25T13:59:47;24.00;;;12.60;;
72125;SDS011;59999;51.676;22.650;2023-04-25T14:02:13;20.88;;;12.07;;
72125;SDS011;59999;51.676;22.650;2023-04-25T14:04:39;23.05;;;11.40;;
72125;SDS011;59999;51.676;22.650;2023-04-25T14:07:05;24.67;;;11.93;;
72125;SDS011;59999;51.676;22.650;2023-04-25T14:09:31;24.50;;;12.93;;
72125;SDS011;59999;51.676;22.650;2023-04-25T14:11:57;23.65;;;12.73;;
72125;SDS011;59999;51.676;22.650;2023-04-25T14:14:23;23.30;;;13.05;;
72125;SDS011;59999;51.676;22.650;2023-04-25T14:16:49;26.35;;;13.60;;
72125;SDS011;59999;51.676;22.650;2023-04-25T14:19:18;24.40;;;12.70;;
72125;SDS011;59999;51.676;22.650;2023-04-25T14:21:46;26.00;;;13.50;;
72125;SDS011;59999;51.676;22.650;2023-04-25T14:24:13;26.00;;;13.52;;
72125;SDS011;59999;51.676;22.650;2023-04-25T14:26:39;24.58;;;12.00;;
72125;SDS011;59999;51.676;22.650;2023-04-25T14:29:06;25.05;;;13.10;;
72125;SDS011;59999;51.676;22.650;2023-04-25T14:31:33;24.60;;;12.95;;